Terminal Aerodrome Forecast
Issued by NWS Nashville, TN

Home | Current Version | Previous Version | Text Only | Print | Product List | Glossary On
Versions: 1 2 3 4 5 6 7 8 9 10 11 12
714
FTUS44 KOHX 282334
TAFCSV
TAF
KCSV 282334Z 2900/2924 23003KT P6SM SKC
     FM291700 18008G12KT P6SM VCSH BKN050
     FM291900 18008G14KT P6SM VCTS BKN050CB=

USA.gov is the U.S. government's official web portal to all federal, state and local government web resources and services.